SWR7MV LSZH-LGAV
Flight info
| Callsign | SWR7MV |
|---|---|
| Flight time | 2h 4m |
| Altitude | 41000 |
| Route | DEGES Y170 ARGAX DCT RESIA DCT LABIN DCT ELGUS DCT AIOSA DCT XAPAT DCT NOSTO UN7 NEMES |
| Aircraft | MD11/H-SDE1E2E3FGHIJ2J3J4J5M1RWXY/LB1D1 |
Departure
| Time | 2026-05-04 09:08 |
|---|---|
| Airport | Zürich Airport (LSZH) |
Arrival
| Time | 2026-05-04 11:12 |
|---|---|
| Airport | Athens Eleftherios Venizelos International Airport (LGAV) |
| Time | Latitude | Longitude | Altitude | Speed | Heading |
|---|---|---|---|---|---|
| 2026-05-04 08:29 | 47.46062 | 8.55337 | 1411 ft | 0 kts | 6° |
| 2026-05-04 08:55 | 47.46050 | 8.55335 | 1404 ft | 4 kts | 6° |
| 2026-05-04 08:55 | 47.46024 | 8.55331 | 1410 ft | 4 kts | 6° |
| 2026-05-04 08:55 | 47.46001 | 8.55327 | 1413 ft | 4 kts | 359° |
| 2026-05-04 08:57 | 47.45972 | 8.55409 | 1415 ft | 0 kts | 276° |
| 2026-05-04 09:01 | 47.45986 | 8.55204 | 1406 ft | 12 kts | 276° |
| 2026-05-04 09:01 | 47.45990 | 8.55147 | 1402 ft | 2 kts | 275° |
| 2026-05-04 09:01 | 47.45992 | 8.55112 | 1403 ft | 5 kts | 275° |
| 2026-05-04 09:01 | 47.45996 | 8.55039 | 1406 ft | 9 kts | 275° |
| 2026-05-04 09:02 | 47.46017 | 8.54946 | 1407 ft | 10 kts | 309° |
| 2026-05-04 09:02 | 47.46087 | 8.54893 | 1405 ft | 12 kts | 338° |
| 2026-05-04 09:02 | 47.46169 | 8.54841 | 1403 ft | 13 kts | 336° |
| 2026-05-04 09:02 | 47.46257 | 8.54781 | 1404 ft | 15 kts | 335° |
| 2026-05-04 09:03 | 47.46359 | 8.54709 | 1398 ft | 17 kts | 334° |
| 2026-05-04 09:03 | 47.46465 | 8.54634 | 1401 ft | 17 kts | 335° |
| 2026-05-04 09:03 | 47.46568 | 8.54566 | 1402 ft | 16 kts | 336° |
| 2026-05-04 09:03 | 47.46676 | 8.54494 | 1400 ft | 18 kts | 335° |
| 2026-05-04 09:04 | 47.46798 | 8.54416 | 1386 ft | 20 kts | 340° |
| 2026-05-04 09:04 | 47.46926 | 8.54334 | 1401 ft | 20 kts | 335° |
| 2026-05-04 09:04 | 47.47048 | 8.54250 | 1398 ft | 19 kts | 335° |
| 2026-05-04 09:04 | 47.47167 | 8.54169 | 1402 ft | 19 kts | 335° |
| 2026-05-04 09:05 | 47.47278 | 8.54091 | 1403 ft | 17 kts | 335° |
| 2026-05-04 09:05 | 47.47383 | 8.54019 | 1404 ft | 16 kts | 335° |
| 2026-05-04 09:05 | 47.47482 | 8.53953 | 1409 ft | 15 kts | 336° |
| 2026-05-04 09:05 | 47.47570 | 8.53889 | 1407 ft | 12 kts | 331° |
| 2026-05-04 09:06 | 47.47610 | 8.53798 | 1411 ft | 10 kts | 282° |
| 2026-05-04 09:07 | 47.47358 | 8.53735 | 1407 ft | 59 kts | 154° |
| 2026-05-04 09:08 | 47.46652 | 8.54228 | 1386 ft | 162 kts | 155° |
| 2026-05-04 09:08 | 47.45524 | 8.54988 | 2149 ft | 185 kts | 155° |
| 2026-05-04 09:08 | 47.44348 | 8.55909 | 3305 ft | 189 kts | 144° |
| 2026-05-04 09:08 | 47.43585 | 8.57495 | 4273 ft | 191 kts | 94° |
| 2026-05-04 09:09 | 47.43801 | 8.59114 | 6029 ft | 151 kts | 71° |
| 2026-05-04 09:09 | 47.44203 | 8.60742 | 6646 ft | 192 kts | 70° |
| 2026-05-04 09:09 | 47.44757 | 8.62810 | 6817 ft | 237 kts | 69° |
| 2026-05-04 09:09 | 47.45426 | 8.65188 | 6971 ft | 267 kts | 68° |
| 2026-05-04 09:10 | 47.45983 | 8.67841 | 7785 ft | 271 kts | 82° |
| 2026-05-04 09:10 | 47.46226 | 8.70628 | 8779 ft | 278 kts | 87° |
| 2026-05-04 09:10 | 47.46392 | 8.73512 | 9836 ft | 284 kts | 89° |
| 2026-05-04 09:10 | 47.46540 | 8.76473 | 10389 ft | 310 kts | 90° |
| 2026-05-04 09:11 | 47.46659 | 8.79905 | 10518 ft | 348 kts | 90° |
| 2026-05-04 09:11 | 47.46517 | 8.83556 | 11119 ft | 361 kts | 101° |
| 2026-05-04 09:11 | 47.46091 | 8.87202 | 12014 ft | 368 kts | 103° |
| 2026-05-04 09:11 | 47.45559 | 8.90990 | 12990 ft | 375 kts | 105° |
| 2026-05-04 09:12 | 47.45004 | 8.94711 | 13877 ft | 383 kts | 105° |
| 2026-05-04 09:12 | 47.44421 | 8.98612 | 14758 ft | 388 kts | 105° |
| 2026-05-04 09:14 | 47.39438 | 9.26349 | 20713 ft | 410 kts | 128° |
| 2026-05-04 09:14 | 47.37497 | 9.29405 | 21466 ft | 409 kts | 145° |
| 2026-05-04 09:14 | 47.35043 | 9.31489 | 22171 ft | 409 kts | 161° |
| 2026-05-04 09:14 | 47.32270 | 9.32457 | 22899 ft | 410 kts | 176° |
| 2026-05-04 09:15 | 47.29410 | 9.32505 | 23568 ft | 414 kts | 185° |
| 2026-05-04 09:15 | 47.26520 | 9.32170 | 24157 ft | 417 kts | 187° |
| 2026-05-04 09:15 | 47.23623 | 9.31749 | 24775 ft | 421 kts | 187° |
| 2026-05-04 09:15 | 47.20701 | 9.31349 | 25415 ft | 425 kts | 187° |
| 2026-05-04 09:17 | 46.98341 | 9.37674 | 29898 ft | 475 kts | 142° |
| 2026-05-04 09:18 | 46.95949 | 9.40950 | 30446 ft | 479 kts | 140° |
| 2026-05-04 09:18 | 46.93546 | 9.44370 | 30911 ft | 483 kts | 139° |
| 2026-05-04 09:18 | 46.91132 | 9.47779 | 31506 ft | 482 kts | 140° |
| 2026-05-04 09:18 | 46.88692 | 9.51136 | 32141 ft | 480 kts | 141° |
| 2026-05-04 09:19 | 46.86265 | 9.54410 | 32780 ft | 478 kts | 141° |
| 2026-05-04 09:19 | 46.83814 | 9.57670 | 33403 ft | 476 kts | 141° |
| 2026-05-04 09:19 | 46.81337 | 9.60939 | 33951 ft | 476 kts | 142° |
| 2026-05-04 09:19 | 46.78884 | 9.64165 | 34514 ft | 473 kts | 141° |
| 2026-05-04 09:20 | 46.76432 | 9.67380 | 34980 ft | 473 kts | 141° |
| 2026-05-04 09:20 | 46.73991 | 9.70576 | 35408 ft | 472 kts | 141° |
| 2026-05-04 09:20 | 46.71544 | 9.73777 | 35869 ft | 471 kts | 141° |
| 2026-05-04 09:20 | 46.69109 | 9.76962 | 36326 ft | 470 kts | 141° |
| 2026-05-04 09:21 | 46.66682 | 9.80132 | 36760 ft | 469 kts | 141° |
| 2026-05-04 09:21 | 46.64262 | 9.83301 | 37175 ft | 469 kts | 141° |
| 2026-05-04 09:21 | 46.61883 | 9.86405 | 37570 ft | 468 kts | 141° |
| 2026-05-04 09:21 | 46.59446 | 9.89577 | 37979 ft | 467 kts | 141° |
| 2026-05-04 09:22 | 46.57013 | 9.92739 | 38380 ft | 467 kts | 141° |
| 2026-05-04 09:22 | 46.54597 | 9.95878 | 38824 ft | 466 kts | 141° |
| 2026-05-04 09:22 | 46.52185 | 9.99007 | 39114 ft | 465 kts | 141° |
| 2026-05-04 09:22 | 46.49758 | 10.02151 | 39357 ft | 466 kts | 141° |
| 2026-05-04 09:23 | 46.47358 | 10.05301 | 39577 ft | 468 kts | 137° |
| 2026-05-04 09:23 | 46.45191 | 10.08826 | 39818 ft | 471 kts | 130° |
| 2026-05-04 09:23 | 46.43252 | 10.12695 | 39994 ft | 473 kts | 126° |
| 2026-05-04 09:23 | 46.41442 | 10.16682 | 40159 ft | 474 kts | 124° |
| 2026-05-04 09:25 | 46.28642 | 10.44747 | 41180 ft | 482 kts | 126° |
| 2026-05-04 09:25 | 46.26805 | 10.48678 | 41179 ft | 480 kts | 126° |
| 2026-05-04 09:26 | 46.23038 | 10.56725 | 41192 ft | 479 kts | 126° |
| 2026-05-04 09:26 | 46.19299 | 10.64692 | 41192 ft | 480 kts | 126° |
| 2026-05-04 09:27 | 46.15543 | 10.72677 | 41195 ft | 480 kts | 126° |
| 2026-05-04 09:27 | 46.11810 | 10.80586 | 41199 ft | 479 kts | 126° |
| 2026-05-04 09:28 | 46.08056 | 10.88519 | 41201 ft | 478 kts | 126° |
| 2026-05-04 09:28 | 46.04291 | 10.96453 | 41198 ft | 479 kts | 126° |
| 2026-05-04 09:29 | 46.00524 | 11.04369 | 41186 ft | 479 kts | 126° |
| 2026-05-04 09:29 | 45.96761 | 11.12178 | 41174 ft | 479 kts | 126° |
| 2026-05-04 09:30 | 45.93085 | 11.19795 | 41162 ft | 479 kts | 126° |
| 2026-05-04 09:30 | 45.89321 | 11.27623 | 41154 ft | 479 kts | 126° |
| 2026-05-04 09:31 | 45.85515 | 11.35542 | 41146 ft | 480 kts | 126° |
| 2026-05-04 09:31 | 45.81704 | 11.43440 | 41138 ft | 480 kts | 126° |
| 2026-05-04 09:32 | 45.77907 | 11.51284 | 41135 ft | 480 kts | 126° |
| 2026-05-04 09:34 | 45.62823 | 11.82238 | 41121 ft | 480 kts | 126° |
| 2026-05-04 09:34 | 45.59013 | 11.90003 | 41122 ft | 481 kts | 126° |
| 2026-05-04 09:35 | 45.55164 | 11.97827 | 41124 ft | 481 kts | 126° |
| 2026-05-04 09:35 | 45.51307 | 12.05623 | 41104 ft | 481 kts | 127° |
| 2026-05-04 09:37 | 45.35813 | 12.36692 | 41104 ft | 482 kts | 127° |
| 2026-05-04 09:38 | 45.31916 | 12.44484 | 41107 ft | 482 kts | 127° |
| 2026-05-04 09:38 | 45.28018 | 12.52259 | 41108 ft | 482 kts | 127° |
| 2026-05-04 09:39 | 45.24114 | 12.60020 | 41111 ft | 482 kts | 127° |
| 2026-05-04 09:39 | 45.20212 | 12.67759 | 41115 ft | 483 kts | 127° |
| 2026-05-04 09:40 | 45.16307 | 12.75482 | 41120 ft | 483 kts | 127° |
| 2026-05-04 09:40 | 45.12381 | 12.83226 | 41118 ft | 483 kts | 127° |
| 2026-05-04 09:42 | 44.95864 | 13.12509 | 41121 ft | 481 kts | 139° |
| 2026-05-04 09:43 | 44.90971 | 13.18933 | 41124 ft | 481 kts | 139° |
| 2026-05-04 09:43 | 44.86086 | 13.25425 | 41121 ft | 481 kts | 138° |
| 2026-05-04 09:44 | 44.81269 | 13.31897 | 41126 ft | 482 kts | 138° |
| 2026-05-04 09:46 | 44.61836 | 13.57931 | 41128 ft | 483 kts | 138° |
| 2026-05-04 09:46 | 44.56969 | 13.64408 | 41130 ft | 483 kts | 138° |
| 2026-05-04 09:47 | 44.52085 | 13.70894 | 41131 ft | 483 kts | 138° |
| 2026-05-04 09:49 | 44.32527 | 13.96620 | 41133 ft | 484 kts | 138° |
| 2026-05-04 09:51 | 44.15478 | 14.18910 | 41137 ft | 486 kts | 138° |
| 2026-05-04 09:51 | 44.10539 | 14.25336 | 41138 ft | 486 kts | 138° |
| 2026-05-04 09:52 | 44.05599 | 14.31746 | 41136 ft | 486 kts | 138° |
| 2026-05-04 09:52 | 44.00652 | 14.38149 | 41141 ft | 486 kts | 138° |
| 2026-05-04 09:53 | 43.95699 | 14.44546 | 41140 ft | 486 kts | 138° |
| 2026-05-04 09:53 | 43.90736 | 14.50942 | 41142 ft | 487 kts | 138° |
| 2026-05-04 09:54 | 43.85784 | 14.57307 | 41141 ft | 487 kts | 138° |
| 2026-05-04 09:54 | 43.80791 | 14.63706 | 41141 ft | 487 kts | 139° |
| 2026-05-04 09:55 | 43.75787 | 14.70060 | 41143 ft | 488 kts | 139° |
| 2026-05-04 09:55 | 43.70795 | 14.76398 | 41144 ft | 488 kts | 139° |
| 2026-05-04 09:56 | 43.65798 | 14.82753 | 41142 ft | 488 kts | 139° |
| 2026-05-04 09:56 | 43.60797 | 14.89106 | 41145 ft | 489 kts | 139° |
| 2026-05-04 09:57 | 43.55788 | 14.95465 | 41149 ft | 489 kts | 137° |
| 2026-05-04 09:57 | 43.50995 | 15.02136 | 41148 ft | 490 kts | 134° |
| 2026-05-04 09:58 | 43.46377 | 15.08973 | 41148 ft | 490 kts | 134° |
| 2026-05-04 09:58 | 43.41731 | 15.15854 | 41150 ft | 491 kts | 134° |
| 2026-05-04 10:00 | 43.22982 | 15.43192 | 41154 ft | 492 kts | 134° |
| 2026-05-04 10:04 | 42.90670 | 15.89587 | 41159 ft | 495 kts | 134° |
| 2026-05-04 10:04 | 42.86105 | 15.96078 | 41158 ft | 495 kts | 134° |
| 2026-05-04 10:05 | 42.81335 | 16.02859 | 41157 ft | 496 kts | 134° |
| 2026-05-04 10:05 | 42.76557 | 16.09637 | 41159 ft | 496 kts | 134° |
| 2026-05-04 10:06 | 42.71763 | 16.16421 | 41160 ft | 497 kts | 134° |
| 2026-05-04 10:06 | 42.66969 | 16.23189 | 41159 ft | 497 kts | 134° |
| 2026-05-04 10:08 | 42.50143 | 16.46813 | 41153 ft | 499 kts | 134° |
| 2026-05-04 10:08 | 42.45311 | 16.53561 | 41154 ft | 500 kts | 134° |
| 2026-05-04 10:09 | 42.40474 | 16.60297 | 41155 ft | 500 kts | 134° |
| 2026-05-04 10:09 | 42.35595 | 16.67027 | 41157 ft | 500 kts | 134° |
| 2026-05-04 10:10 | 42.30720 | 16.73755 | 41157 ft | 501 kts | 134° |
| 2026-05-04 10:10 | 42.25873 | 16.80454 | 41157 ft | 501 kts | 134° |
| 2026-05-04 10:11 | 42.20983 | 16.87203 | 41161 ft | 502 kts | 134° |
| 2026-05-04 10:11 | 42.16082 | 16.93953 | 41160 ft | 503 kts | 134° |
| 2026-05-04 10:12 | 42.11215 | 17.00639 | 41164 ft | 503 kts | 134° |
| 2026-05-04 10:12 | 42.06317 | 17.07351 | 41161 ft | 503 kts | 134° |
| 2026-05-04 10:13 | 42.01405 | 17.14068 | 41166 ft | 503 kts | 134° |
| 2026-05-04 10:13 | 41.96474 | 17.20774 | 41165 ft | 503 kts | 136° |
| 2026-05-04 10:14 | 41.90898 | 17.26453 | 41167 ft | 504 kts | 148° |
| 2026-05-04 10:16 | 41.66762 | 17.45615 | 41169 ft | 506 kts | 149° |
| 2026-05-04 10:16 | 41.60727 | 17.50493 | 41168 ft | 506 kts | 149° |
| 2026-05-04 10:17 | 41.54723 | 17.55329 | 41168 ft | 506 kts | 149° |
| 2026-05-04 10:19 | 41.30797 | 17.74483 | 41171 ft | 506 kts | 149° |
| 2026-05-04 10:19 | 41.24750 | 17.79297 | 41171 ft | 506 kts | 149° |
| 2026-05-04 10:20 | 41.18689 | 17.84088 | 41168 ft | 506 kts | 149° |
| 2026-05-04 10:20 | 41.12630 | 17.88871 | 41167 ft | 506 kts | 149° |
| 2026-05-04 10:21 | 41.06579 | 17.93652 | 41171 ft | 506 kts | 149° |
| 2026-05-04 10:21 | 41.00599 | 17.98373 | 41165 ft | 506 kts | 149° |
| 2026-05-04 10:22 | 40.91512 | 18.05527 | 41164 ft | 506 kts | 149° |
| 2026-05-04 10:23 | 40.85470 | 18.10270 | 41166 ft | 506 kts | 149° |
| 2026-05-04 10:25 | 40.63662 | 18.27296 | 41165 ft | 508 kts | 149° |
| 2026-05-04 10:25 | 40.57621 | 18.32003 | 41166 ft | 508 kts | 149° |
| 2026-05-04 10:26 | 40.51688 | 18.37035 | 41167 ft | 508 kts | 145° |
| 2026-05-04 10:26 | 40.45874 | 18.42373 | 41159 ft | 508 kts | 144° |
| 2026-05-04 10:27 | 40.40117 | 18.47683 | 41174 ft | 509 kts | 144° |
| 2026-05-04 10:27 | 40.34281 | 18.53012 | 41168 ft | 509 kts | 145° |
| 2026-05-04 10:28 | 40.28462 | 18.58294 | 41173 ft | 510 kts | 145° |
| 2026-05-04 10:28 | 40.22614 | 18.63588 | 41169 ft | 510 kts | 145° |
| 2026-05-04 10:29 | 40.16805 | 18.68836 | 41157 ft | 510 kts | 145° |
| 2026-05-04 10:29 | 40.10918 | 18.74145 | 41163 ft | 511 kts | 145° |
| 2026-05-04 10:30 | 40.05070 | 18.79407 | 41169 ft | 511 kts | 145° |
| 2026-05-04 10:30 | 39.99205 | 18.84674 | 41171 ft | 512 kts | 145° |
| 2026-05-04 10:31 | 39.93333 | 18.89935 | 41172 ft | 512 kts | 145° |
| 2026-05-04 10:32 | 39.74836 | 19.11069 | 41173 ft | 508 kts | 121° |
| 2026-05-04 10:33 | 39.70901 | 19.18704 | 41167 ft | 508 kts | 122° |
| 2026-05-04 10:33 | 39.66856 | 19.26192 | 41167 ft | 509 kts | 123° |
| 2026-05-04 10:34 | 39.62707 | 19.33625 | 41167 ft | 509 kts | 124° |
| 2026-05-04 10:34 | 39.58740 | 19.40678 | 41163 ft | 509 kts | 124° |
| 2026-05-04 10:35 | 39.54550 | 19.48122 | 41155 ft | 509 kts | 123° |
| 2026-05-04 10:35 | 39.50404 | 19.55484 | 41155 ft | 509 kts | 124° |
| 2026-05-04 10:36 | 39.46218 | 19.62899 | 41152 ft | 509 kts | 123° |
| 2026-05-04 10:36 | 39.42029 | 19.70299 | 41148 ft | 509 kts | 124° |
| 2026-05-04 10:37 | 39.37880 | 19.77613 | 41142 ft | 509 kts | 123° |
| 2026-05-04 10:37 | 39.33692 | 19.84985 | 41145 ft | 509 kts | 124° |
| 2026-05-04 10:39 | 39.18943 | 20.10687 | 41185 ft | 509 kts | 124° |
| 2026-05-04 10:40 | 39.14679 | 20.18114 | 41172 ft | 510 kts | 124° |
| 2026-05-04 10:40 | 39.10508 | 20.25377 | 41035 ft | 508 kts | 124° |
| 2026-05-04 10:40 | 39.08394 | 20.29035 | 41168 ft | 510 kts | 124° |
| 2026-05-04 10:41 | 39.06289 | 20.32689 | 41193 ft | 511 kts | 124° |
| 2026-05-04 10:41 | 39.02058 | 20.40092 | 41178 ft | 509 kts | 124° |
| 2026-05-04 10:42 | 38.97874 | 20.47398 | 41181 ft | 509 kts | 124° |
| 2026-05-04 10:42 | 38.93671 | 20.54709 | 41183 ft | 509 kts | 124° |
| 2026-05-04 10:43 | 38.89434 | 20.62054 | 41184 ft | 510 kts | 124° |
| 2026-05-04 10:45 | 38.72399 | 20.91052 | 41185 ft | 510 kts | 125° |
| 2026-05-04 10:45 | 38.68102 | 20.98335 | 41181 ft | 511 kts | 125° |
| 2026-05-04 10:46 | 38.63832 | 21.05548 | 41181 ft | 511 kts | 125° |
| 2026-05-04 10:46 | 38.59497 | 21.12850 | 41182 ft | 511 kts | 125° |
| 2026-05-04 10:47 | 38.55213 | 21.20057 | 41180 ft | 511 kts | 125° |
| 2026-05-04 10:47 | 38.50935 | 21.27240 | 41185 ft | 512 kts | 125° |
| 2026-05-04 10:49 | 38.33485 | 21.56309 | 38807 ft | 517 kts | 124° |
| 2026-05-04 10:49 | 38.32028 | 21.58713 | 38440 ft | 517 kts | 124° |
| 2026-05-04 10:50 | 38.29826 | 21.62350 | 37919 ft | 519 kts | 124° |
| 2026-05-04 10:51 | 38.14138 | 21.88258 | 34296 ft | 538 kts | 125° |
| 2026-05-04 10:52 | 38.11839 | 21.92038 | 33724 ft | 541 kts | 125° |
| 2026-05-04 10:52 | 38.09537 | 21.95818 | 33257 ft | 540 kts | 125° |
| 2026-05-04 10:52 | 38.07230 | 21.99593 | 32970 ft | 546 kts | 124° |
| 2026-05-04 10:54 | 37.90888 | 22.26028 | 28709 ft | 542 kts | 125° |
| 2026-05-04 10:54 | 37.88589 | 22.29723 | 28043 ft | 537 kts | 125° |
| 2026-05-04 10:56 | 37.75392 | 22.55762 | 23848 ft | 487 kts | 105° |
| 2026-05-04 10:56 | 37.74188 | 22.59739 | 23328 ft | 482 kts | 105° |
| 2026-05-04 10:56 | 37.73002 | 22.63677 | 22754 ft | 480 kts | 105° |
| 2026-05-04 10:57 | 37.71821 | 22.67603 | 21896 ft | 473 kts | 105° |
| 2026-05-04 10:57 | 37.70663 | 22.71464 | 21205 ft | 467 kts | 105° |
| 2026-05-04 10:57 | 37.69670 | 22.75321 | 20573 ft | 456 kts | 99° |
| 2026-05-04 10:57 | 37.68938 | 22.79142 | 19997 ft | 448 kts | 96° |
| 2026-05-04 10:58 | 37.68293 | 22.82987 | 19386 ft | 442 kts | 95° |
| 2026-05-04 10:58 | 37.67693 | 22.86763 | 18855 ft | 436 kts | 95° |
| 2026-05-04 10:58 | 37.67117 | 22.90498 | 18293 ft | 430 kts | 95° |
| 2026-05-04 10:58 | 37.66567 | 22.94185 | 17750 ft | 425 kts | 95° |
| 2026-05-04 10:59 | 37.66036 | 22.97830 | 17254 ft | 420 kts | 95° |
| 2026-05-04 10:59 | 37.65526 | 23.01412 | 16782 ft | 415 kts | 95° |
| 2026-05-04 10:59 | 37.65026 | 23.05013 | 16353 ft | 411 kts | 95° |
| 2026-05-04 10:59 | 37.64543 | 23.08547 | 15980 ft | 407 kts | 95° |
| 2026-05-04 11:00 | 37.64081 | 23.12051 | 15641 ft | 401 kts | 94° |
| 2026-05-04 11:01 | 37.64094 | 23.35685 | 11969 ft | 352 kts | 85° |
| 2026-05-04 11:02 | 37.64156 | 23.38686 | 11412 ft | 320 kts | 85° |
| 2026-05-04 11:02 | 37.64206 | 23.41326 | 10805 ft | 298 kts | 85° |
| 2026-05-04 11:05 | 37.71284 | 23.71667 | 3742 ft | 224 kts | 38° |
| 2026-05-04 11:06 | 37.72439 | 23.72964 | 3373 ft | 225 kts | 39° |
| 2026-05-04 11:06 | 37.73626 | 23.74252 | 3049 ft | 213 kts | 37° |
| 2026-05-04 11:06 | 37.74774 | 23.75390 | 2994 ft | 212 kts | 34° |
| 2026-05-04 11:06 | 37.75872 | 23.76424 | 2987 ft | 192 kts | 33° |
| 2026-05-04 11:08 | 37.82730 | 23.82923 | 1953 ft | 174 kts | 34° |
| 2026-05-04 11:10 | 37.88720 | 23.88613 | 1255 ft | 141 kts | 32° |
| 2026-05-04 11:12 | 37.93445 | 23.93127 | 300 ft | 51 kts | 38° |
| 2026-05-04 11:12 | 37.93584 | 23.93327 | 302 ft | 18 kts | 65° |
| 2026-05-04 11:12 | 37.93613 | 23.93409 | 304 ft | 5 kts | 66° |
| 2026-05-04 11:12 | 37.93620 | 23.93429 | 304 ft | 0 kts | 67° |
| 2026-05-04 11:13 | 37.93621 | 23.93432 | 305 ft | 3 kts | 69° |
| 2026-05-04 11:13 | 37.93609 | 23.93503 | 309 ft | 11 kts | 135° |
| 2026-05-04 11:13 | 37.93526 | 23.93476 | 307 ft | 16 kts | 217° |
| 2026-05-04 11:14 | 37.93429 | 23.93440 | 308 ft | 11 kts | 150° |
| 2026-05-04 11:14 | 37.93376 | 23.93529 | 308 ft | 15 kts | 125° |
| 2026-05-04 11:14 | 37.93307 | 23.93646 | 310 ft | 18 kts | 127° |
| 2026-05-04 11:16 | 37.92876 | 23.94397 | 309 ft | 6 kts | 89° |
| 2026-05-04 11:16 | 37.92900 | 23.94424 | 310 ft | 6 kts | 30° |
| 2026-05-04 11:16 | 37.92950 | 23.94466 | 310 ft | 11 kts | 37° |
| 2026-05-04 11:17 | 37.93022 | 23.94536 | 311 ft | 16 kts | 37° |
| 2026-05-04 11:17 | 37.93124 | 23.94636 | 309 ft | 21 kts | 38° |
| 2026-05-04 11:19 | 37.93443 | 23.94729 | 308 ft | 1 kts | 309° |
| 2026-05-04 11:19 | 37.93450 | 23.94718 | 308 ft | 2 kts | 309° |
| 2026-05-04 11:19 | 37.93461 | 23.94700 | 309 ft | 0 kts | 307° |
| 2026-05-04 11:19 | 37.93462 | 23.94699 | 309 ft | 0 kts | 307° |
| 2026-05-04 11:20 | 37.93461 | 23.94700 | 309 ft | 0 kts | 307° |